Time;durP1;ratioP1;P1;durP2;ratioP2;P2;SDS_P1;SDS_P2;PMS_P1;PMS_P2;Temp;Humidity;BMP_temperature;BMP_pressure;BME280_temperature;BME280_humidity;BME280_pressure;Samples;Min_cycle;Max_cycle;Signal;HPM_P1;HPM_P2
2023/06/06 00:02:26;;;;;;;;;;;;;;;;;;4943338;28;19922;-80
2023/06/06 00:05:13;;;;;;;;;;;;;;;;;;4939390;28;19923;-80
2023/06/06 00:07:59;;;;;;;;;;;;;;;;;;4944958;28;19944;-81
2023/06/06 00:10:47;;;;;;;;;;;;;;;;;;4941288;29;19926;-80
2023/06/06 00:13:35;;;;;;;;;;;;;;;;;;4942925;28;19922;-82
2023/06/06 00:16:23;;;;;;;;;;;;;;;;;;4938202;28;19922;-82
2023/06/06 00:19:10;;;;;;;;;;;;;;;;;;4932681;28;20417;-84
2023/06/06 00:21:56;;;;;;;;;;;;;;;;;;4932377;28;19915;-84
2023/06/06 00:24:43;;;;;;;;;;;;;;;;;;4935766;28;20392;-84
2023/06/06 00:27:29;;;;;;;;;;;;;;;;;;4942185;28;19930;-80
2023/06/06 00:30:16;;;;;;;;;;;;;;;;;;4937792;29;20245;-83
2023/06/06 00:33:02;;;;;;;;;;;;;;;;;;4942465;29;19918;-82
2023/06/06 00:35:49;;;;;;;;;;;;;;;;;;4946771;28;20628;-83
2023/06/06 00:38:35;;;;;;;;;;;;;;;;;;4945438;28;19937;-80
2023/06/06 00:41:21;;;;;;;;;;;;;;;;;;4942376;29;19949;-82
2023/06/06 00:44:08;;;;;;;;;;;;;;;;;;4945371;29;19918;-84
2023/06/06 00:46:54;;;;;;;;;;;;;;;;;;4936020;28;19919;-81
2023/06/06 00:49:41;;;;;;;;;;;;;;;;;;4943547;28;19922;-81
2023/06/06 00:52:28;;;;;;;;;;;;;;;;;;4938289;29;19922;-82
2023/06/06 00:55:15;;;;;;;;;;;;;;;;;;4918659;29;19927;-84
2023/06/06 00:58:01;;;;;;;;;;;;;;;;;;4941099;28;19945;-84
2023/06/06 01:00:48;;;;;;;;;;;;;;;;;;4948061;28;19929;-84
2023/06/06 01:03:34;;;;;;;;;;;;;;;;;;4937964;28;19922;-83
2023/06/06 01:06:22;;;;;;;;;;;;;;;;;;4942579;28;19934;-83
2023/06/06 01:09:08;;;;;;;;;;;;;;;;;;4938589;29;19937;-82
2023/06/06 01:11:55;;;;;;;;;;;;;;;;;;4940110;28;19929;-84
2023/06/06 01:14:42;;;;;;;;;;;;;;;;;;4946418;28;19919;-85
2023/06/06 01:17:29;;;;;;;;;;;;;;;;;;4932307;28;20404;-83
2023/06/06 01:20:16;;;;;;;;;;;;;;;;;;4941359;28;19942;-85
2023/06/06 01:23:02;;;;;;;;;;;;;;;;;;4940801;29;19922;-84
2023/06/06 01:25:49;;;;;;;;;;;;;;;;;;4952384;28;20353;-84
2023/06/06 01:28:35;;;;;;;;;;;;;;;;;;4944441;28;19953;-83
2023/06/06 01:31:22;;;;;;;;;;;;;;;;;;4935148;29;19925;-82
2023/06/06 01:34:08;;;;;;;;;;;;;;;;;;4946214;28;19922;-83
2023/06/06 01:36:55;;;;;;;;;;;;;;;;;;4935584;29;20286;-82
2023/06/06 01:39:41;;;;;;;;;;;;;;;;;;4937483;28;19930;-85
2023/06/06 01:42:28;;;;;;;;;;;;;;;;;;4932332;29;19992;-83
2023/06/06 01:45:14;;;;;;;;;;;;;;;;;;4943307;28;20386;-84
2023/06/06 01:48:00;;;;;;;;;;;;;;;;;;4944270;28;19968;-86
2023/06/06 01:50:47;;;;;;;;;;;;;;;;;;4939182;28;19922;-86
2023/06/06 01:53:34;;;;;;;;;;;;;;;;;;4947780;28;19923;-83
2023/06/06 01:56:21;;;;;;;;;;;;;;;;;;4935798;28;19923;-85
2023/06/06 01:59:08;;;;;;;;;;;;;;;;;;4940887;29;20011;-84
2023/06/06 02:01:54;;;;;;;;;;;;;;;;;;4939488;28;19922;-81
2023/06/06 02:04:41;;;;;;;;;;;;;;;;;;4933981;29;19922;-81
2023/06/06 02:07:28;;;;;;;;;;;;;;;;;;4950032;28;20301;-84
2023/06/06 02:10:14;;;;;;;;;;;;;;;;;;4936196;28;19918;-80
2023/06/06 02:13:01;;;;;;;;;;;;;;;;;;4935449;28;19918;-81
2023/06/06 02:15:47;;;;;;;;;;;;;;;;;;4943932;28;19930;-82
2023/06/06 02:18:34;;;;;;;;;;;;;;;;;;4939918;29;19940;-82
2023/06/06 02:21:20;;;;;;;;;;;;;;;;;;4935375;28;19945;-82
2023/06/06 02:24:07;;;;;;;;;;;;;;;;;;4940723;29;19918;-82
2023/06/06 02:26:53;;;;;;;;;;;;;;;;;;4935051;28;19938;-85
2023/06/06 02:29:40;;;;;;;;;;;;;;;;;;4932664;29;20389;-83
2023/06/06 02:32:26;;;;;;;;;;;;;;;;;;4932915;28;19925;-83
2023/06/06 02:35:14;;;;;;;;;;;;;;;;;;4942654;28;20093;-83
2023/06/06 02:38:01;;;;;;;;;;;;;;;;;;4931866;28;20374;-84
2023/06/06 02:40:47;;;;;;;;;;;;;;;;;;4937418;29;19929;-82
2023/06/06 02:43:34;;;;;;;;;;;;;;;;;;4935060;28;19999;-82
2023/06/06 02:46:20;;;;;;;;;;;;;;;;;;4943250;28;19922;-83
2023/06/06 02:49:07;;;;;;;;;;;;;;;;;;4939207;28;19915;-83
2023/06/06 02:51:55;;;;;;;;;;;;;;;;;;4941566;29;20374;-84
2023/06/06 02:54:41;;;;;;;;;;;;;;;;;;4948942;28;20690;-83
2023/06/06 02:57:28;;;;;;;;;;;;;;;;;;4931625;28;20555;-81
2023/06/06 03:00:14;;;;;;;;;;;;;;;;;;4934687;29;19919;-83
2023/06/06 03:03:01;;;;;;;;;;;;;;;;;;4937017;29;19922;-86
2023/06/06 03:05:51;;;;;;;;;;;;;;;;;;4946533;28;19926;-86
2023/06/06 03:08:37;;;;;;;;;;;;;;;;;;4937391;28;19923;-85
2023/06/06 03:11:25;;;;;;;;;;;;;;;;;;4942270;28;19922;-85
2023/06/06 03:14:11;;;;;;;;;;;;;;;;;;4939955;28;19919;-81
2023/06/06 03:16:58;;;;;;;;;;;;;;;;;;4942212;29;19926;-82
2023/06/06 03:19:48;;;;;;;;;;;;;;;;;;4944692;29;20323;-82
2023/06/06 03:22:35;;;;;;;;;;;;;;;;;;4937953;29;20315;-81
2023/06/06 03:25:25;;;;;;;;;;;;;;;;;;4932539;29;19922;-81
2023/06/06 03:28:11;;;;;;;;;;;;;;;;;;4938930;29;20311;-82
2023/06/06 03:30:57;;;;;;;;;;;;;;;;;;4943526;29;19915;-82
2023/06/06 03:33:44;;;;;;;;;;;;;;;;;;4940664;28;19936;-82
2023/06/06 03:36:34;;;;;;;;;;;;;;;;;;4945477;28;19923;-82
2023/06/06 03:39:20;;;;;;;;;;;;;;;;;;4932163;29;19937;-82
2023/06/06 03:42:07;;;;;;;;;;;;;;;;;;4942170;28;20371;-83
2023/06/06 03:44:53;;;;;;;;;;;;;;;;;;4941333;29;20332;-81
2023/06/06 03:47:40;;;;;;;;;;;;;;;;;;4937489;29;19919;-83
2023/06/06 03:50:26;;;;;;;;;;;;;;;;;;4942124;28;20291;-79
2023/06/06 03:53:13;;;;;;;;;;;;;;;;;;4928284;28;20313;-79
2023/06/06 03:55:59;;;;;;;;;;;;;;;;;;4939965;28;20444;-80
2023/06/06 03:58:47;;;;;;;;;;;;;;;;;;4941218;29;20448;-80
2023/06/06 04:01:33;;;;;;;;;;;;;;;;;;4939709;28;20302;-80
2023/06/06 04:04:20;;;;;;;;;;;;;;;;;;4938413;29;19926;-80
2023/06/06 04:07:07;;;;;;;;;;;;;;;;;;4939970;28;19961;-80
2023/06/06 04:09:53;;;;;;;;;;;;;;;;;;4943105;28;19922;-81
2023/06/06 04:12:40;;;;;;;;;;;;;;;;;;4935506;28;19925;-81
2023/06/06 04:15:26;;;;;;;;;;;;;;;;;;4941513;28;19930;-81
2023/06/06 04:18:13;;;;;;;;;;;;;;;;;;4937552;29;19931;-81
2023/06/06 04:20:59;;;;;;;;;;;;;;;;;;4931087;28;19923;-82
2023/06/06 04:23:46;;;;;;;;;;;;;;;;;;4938495;29;19918;-81
2023/06/06 04:26:33;;;;;;;;;;;;;;;;;;4932113;28;19942;-81
2023/06/06 04:29:21;;;;;;;;;;;;;;;;;;4941745;29;20227;-83
2023/06/06 04:32:13;;;;;;;;;;;;;;;;;;4936644;28;19919;-82
2023/06/06 04:34:59;;;;;;;;;;;;;;;;;;4934846;28;19918;-82
2023/06/06 04:37:53;;;;;;;;;;;;;;;;;;4940644;28;19941;-80
2023/06/06 04:40:39;;;;;;;;;;;;;;;;;;4946437;28;20065;-80
2023/06/06 04:43:27;;;;;;;;;;;;;;;;;;4945435;28;20301;-80
2023/06/06 04:46:21;;;;;;;;;;;;;;;;;;4934753;29;19919;-80
2023/06/06 04:49:08;;;;;;;;;;;;;;;;;;4937372;29;19942;-83
2023/06/06 04:51:56;;;;;;;;;;;;;;;;;;4939052;28;19921;-82
2023/06/06 04:54:42;;;;;;;;;;;;;;;;;;4938079;29;19921;-81
2023/06/06 04:57:29;;;;;;;;;;;;;;;;;;4945144;28;20397;-81
2023/06/06 05:00:16;;;;;;;;;;;;;;;;;;4939362;28;19923;-85
2023/06/06 05:03:03;;;;;;;;;;;;;;;;;;4944451;28;20238;-83
2023/06/06 05:05:51;;;;;;;;;;;;;;;;;;4936430;28;19932;-81
2023/06/06 05:08:39;;;;;;;;;;;;;;;;;;4934943;28;19923;-81
2023/06/06 05:11:26;;;;;;;;;;;;;;;;;;4947399;28;19981;-81
2023/06/06 05:14:12;;;;;;;;;;;;;;;;;;4941112;29;20465;-81
2023/06/06 05:16:59;;;;;;;;;;;;;;;;;;4938660;28;19923;-81
2023/06/06 05:19:45;;;;;;;;;;;;;;;;;;4946190;28;19929;-85
2023/06/06 05:22:32;;;;;;;;;;;;;;;;;;4946560;29;19915;-84
2023/06/06 05:25:18;;;;;;;;;;;;;;;;;;4941417;29;19926;-84
2023/06/06 05:28:05;;;;;;;;;;;;;;;;;;4940622;29;19930;-84
2023/06/06 05:30:52;;;;;;;;;;;;;;;;;;4943507;28;19965;-85
2023/06/06 05:33:38;;;;;;;;;;;;;;;;;;4942111;29;20532;-84
2023/06/06 05:36:25;;;;;;;;;;;;;;;;;;4946641;29;20421;-84
2023/06/06 05:39:11;;;;;;;;;;;;;;;;;;4947589;28;19941;-85
2023/06/06 05:41:58;;;;;;;;;;;;;;;;;;4946964;28;19929;-82
2023/06/06 05:44:44;;;;;;;;;;;;;;;;;;4940909;29;19922;-82
2023/06/06 05:47:31;;;;;;;;;;;;;;;;;;4939280;28;20309;-82
2023/06/06 05:50:17;;;;;;;;;;;;;;;;;;4930137;28;19925;-81
2023/06/06 05:53:04;;;;;;;;;;;;;;;;;;4936357;29;19922;-84
2023/06/06 05:55:50;;;;;;;;;;;;;;;;;;4940736;29;19919;-83
2023/06/06 05:58:37;;;;;;;;;;;;;;;;;;4938652;29;19938;-82
2023/06/06 06:01:24;;;;;;;;;;;;;;;;;;4944815;28;20030;-83
2023/06/06 06:04:11;;;;;;;;;;;;;;;;;;4943313;28;19919;-82
2023/06/06 06:06:57;;;;;;;;;;;;;;;;;;4930044;29;19933;-83
2023/06/06 06:09:44;;;;;;;;;;;;;;;;;;4943925;28;19941;-84
2023/06/06 06:12:30;;;;;;;;;;;;;;;;;;4961030;28;19921;-83
2023/06/06 06:15:17;;;;;;;;;;;;;;;;;;4944616;28;19923;-83
2023/06/06 06:18:03;;;;;;;;;;;;;;;;;;4940130;29;19938;-83
2023/06/06 06:20:50;;;;;;;;;;;;;;;;;;4942275;28;19949;-83
2023/06/06 06:23:36;;;;;;;;;;;;;;;;;;4936270;28;19914;-82
2023/06/06 06:26:23;;;;;;;;;;;;;;;;;;4942030;28;19926;-81
2023/06/06 06:29:09;;;;;;;;;;;;;;;;;;4935110;29;19933;-82
2023/06/06 06:31:56;;;;;;;;;;;;;;;;;;4946009;28;19926;-83
2023/06/06 06:34:42;;;;;;;;;;;;;;;;;;4941366;28;20325;-82
2023/06/06 06:37:32;;;;;;;;;;;;;;;;;;4945549;29;19933;-83
2023/06/06 06:40:19;;;;;;;;;;;;;;;;;;4938715;28;19919;-84
2023/06/06 06:43:05;;;;;;;;;;;;;;;;;;4944515;28;19922;-81
2023/06/06 06:45:52;;;;;;;;;;;;;;;;;;4934070;29;19918;-82
2023/06/06 06:48:39;;;;;;;;;;;;;;;;;;4942051;28;19926;-83
2023/06/06 06:51:27;;;;;;;;;;;;;;;;;;4933550;29;20547;-81
2023/06/06 06:54:15;;;;;;;;;;;;;;;;;;4945993;28;19941;-83
2023/06/06 06:57:02;;;;;;;;;;;;;;;;;;4939219;28;20290;-82
2023/06/06 06:59:49;;;;;;;;;;;;;;;;;;4935126;28;20362;-89
2023/06/06 07:02:39;;;;;;;;;;;;;;;;;;4943599;29;19918;-86
2023/06/06 07:05:25;;;;;;;;;;;;;;;;;;4947954;28;19930;-85
2023/06/06 07:08:12;;;;;;;;;;;;;;;;;;4948220;28;19932;-86
2023/06/06 07:10:58;;;;;;;;;;;;;;;;;;4942296;29;20011;-86
2023/06/06 07:13:45;;;;;;;;;;;;;;;;;;4932221;28;20383;-86
2023/06/06 07:16:33;;;;;;;;;;;;;;;;;;4936985;28;20071;-85
2023/06/06 07:19:20;;;;;;;;;;;;;;;;;;4943094;28;19937;-84
2023/06/06 07:22:07;;;;;;;;;;;;;;;;;;4938163;29;19957;-84
2023/06/06 07:24:54;;;;;;;;;;;;;;;;;;4937427;28;19919;-84
2023/06/06 07:27:41;;;;;;;;;;;;;;;;;;4937284;29;19930;-84
2023/06/06 07:30:28;;;;;;;;;;;;;;;;;;4939810;28;19945;-82
2023/06/06 07:33:15;;;;;;;;;;;;;;;;;;4949672;28;19930;-84
2023/06/06 07:36:02;;;;;;;;;;;;;;;;;;4940891;29;19925;-84
2023/06/06 07:38:48;;;;;;;;;;;;;;;;;;4938307;28;19953;-82
2023/06/06 07:41:35;;;;;;;;;;;;;;;;;;4935636;28;19926;-83
2023/06/06 07:44:21;;;;;;;;;;;;;;;;;;4927648;28;19945;-83
2023/06/06 07:47:08;;;;;;;;;;;;;;;;;;4937358;29;19945;-82
2023/06/06 07:49:54;;;;;;;;;;;;;;;;;;4940018;28;19923;-84
2023/06/06 07:52:43;;;;;;;;;;;;;;;;;;4939546;29;19922;-84
2023/06/06 07:55:30;;;;;;;;;;;;;;;;;;4940054;29;19918;-84
2023/06/06 07:58:22;;;;;;;;;;;;;;;;;;4940413;29;20331;-84
2023/06/06 08:01:08;;;;;;;;;;;;;;;;;;4941643;28;19925;-86
2023/06/06 08:03:55;;;;;;;;;;;;;;;;;;4940236;28;20430;-86
2023/06/06 08:06:42;;;;;;;;;;;;;;;;;;4937225;29;19933;-86
2023/06/06 08:09:29;;;;;;;;;;;;;;;;;;4933784;28;19933;-81
2023/06/06 08:12:15;;;;;;;;;;;;;;;;;;4938867;28;19929;-80
2023/06/06 08:15:02;;;;;;;;;;;;;;;;;;4940871;29;19925;-79
2023/06/06 08:17:48;;;;;;;;;;;;;;;;;;4937691;29;19928;-80
2023/06/06 08:20:35;;;;;;;;;;;;;;;;;;4937206;29;20164;-80
2023/06/06 08:23:23;;;;;;;;;;;;;;;;;;4941278;28;19923;-80
2023/06/06 08:26:09;;;;;;;;;;;;;;;;;;4938220;28;19989;-79
2023/06/06 08:28:56;;;;;;;;;;;;;;;;;;4942908;28;19990;-79
2023/06/06 08:31:42;;;;;;;;;;;;;;;;;;4936778;28;19922;-79
2023/06/06 08:34:29;;;;;;;;;;;;;;;;;;4939892;28;19957;-79
2023/06/06 08:37:17;;;;;;;;;;;;;;;;;;4937900;29;19933;-83
2023/06/06 08:40:04;;;;;;;;;;;;;;;;;;4939748;28;19985;-80
2023/06/06 08:42:52;;;;;;;;;;;;;;;;;;4939341;28;19929;-80
2023/06/06 08:45:38;;;;;;;;;;;;;;;;;;4941443;29;20758;-81
2023/06/06 08:48:25;;;;;;;;;;;;;;;;;;4945072;28;19934;-82
2023/06/06 08:51:12;;;;;;;;;;;;;;;;;;4945212;28;20446;-81
2023/06/06 08:53:59;;;;;;;;;;;;;;;;;;4940926;28;19937;-82
2023/06/06 08:56:46;;;;;;;;;;;;;;;;;;4940938;28;20680;-82
2023/06/06 08:59:32;;;;;;;;;;;;;;;;;;4941976;29;19934;-81
2023/06/06 09:02:19;;;;;;;;;;;;;;;;;;4942618;29;19922;-82
2023/06/06 09:05:05;;;;;;;;;;;;;;;;;;4941272;28;19942;-84
2023/06/06 09:07:52;;;;;;;;;;;;;;;;;;4941938;29;19923;-82
2023/06/06 09:10:39;;;;;;;;;;;;;;;;;;4944063;29;19915;-84
2023/06/06 09:13:25;;;;;;;;;;;;;;;;;;4946891;28;19922;-86
2023/06/06 09:16:12;;;;;;;;;;;;;;;;;;4941931;29;20373;-82
2023/06/06 09:19:00;;;;;;;;;;;;;;;;;;4941745;29;21487;-78
2023/06/06 09:21:47;;;;;;;;;;;;;;;;;;4943530;28;19932;-78
2023/06/06 09:24:33;;;;;;;;;;;;;;;;;;4941061;28;19923;-78
2023/06/06 09:27:20;;;;;;;;;;;;;;;;;;4939861;28;19931;-75
2023/06/06 09:30:06;;;;;;;;;;;;;;;;;;4941253;29;19930;-75
2023/06/06 09:32:53;;;;;;;;;;;;;;;;;;4936250;28;19921;-76
2023/06/06 09:35:39;;;;;;;;;;;;;;;;;;4937978;28;19919;-76
2023/06/06 09:38:28;;;;;;;;;;;;;;;;;;4934907;28;19926;-76
2023/06/06 09:41:15;;;;;;;;;;;;;;;;;;4942774;28;19962;-76
2023/06/06 09:44:01;;;;;;;;;;;;;;;;;;4925294;29;19922;-75
2023/06/06 09:46:48;;;;;;;;;;;;;;;;;;4934447;29;19926;-76
2023/06/06 09:49:34;;;;;;;;;;;;;;;;;;4929886;29;19918;-73
2023/06/06 09:52:21;;;;;;;;;;;;;;;;;;4939079;29;19976;-76
2023/06/06 09:55:07;;;;;;;;;;;;;;;;;;4938811;28;19942;-74
2023/06/06 09:57:54;;;;;;;;;;;;;;;;;;4939857;28;19977;-74
2023/06/06 10:00:40;;;;;;;;;;;;;;;;;;4945674;28;19926;-75
2023/06/06 10:03:27;;;;;;;;;;;;;;;;;;4943618;28;20024;-74
2023/06/06 10:06:14;;;;;;;;;;;;;;;;;;4944566;28;19929;-75
2023/06/06 10:09:01;;;;;;;;;;;;;;;;;;4945284;29;19983;-75
2023/06/06 10:11:47;;;;;;;;;;;;;;;;;;4934542;28;19968;-75
2023/06/06 10:14:34;;;;;;;;;;;;;;;;;;4939692;28;19923;-75
2023/06/06 10:17:20;;;;;;;;;;;;;;;;;;4941433;28;20495;-75
2023/06/06 10:20:09;;;;;;;;;;;;;;;;;;4940993;28;20384;-75
2023/06/06 10:22:56;;;;;;;;;;;;;;;;;;4938866;29;19918;-75
2023/06/06 10:25:42;;;;;;;;;;;;;;;;;;4940071;29;19918;-75
2023/06/06 10:28:29;;;;;;;;;;;;;;;;;;4935993;29;19931;-75
2023/06/06 10:31:16;;;;;;;;;;;;;;;;;;4937635;28;20374;-75
2023/06/06 10:34:02;;;;;;;;;;;;;;;;;;4934908;28;19929;-75
2023/06/06 10:36:49;;;;;;;;;;;;;;;;;;4940392;28;19931;-75
2023/06/06 10:39:36;;;;;;;;;;;;;;;;;;4935051;29;19929;-76
2023/06/06 10:42:25;;;;;;;;;;;;;;;;;;4937977;29;20348;-76
2023/06/06 10:45:11;;;;;;;;;;;;;;;;;;4942241;28;19938;-76
2023/06/06 10:47:58;;;;;;;;;;;;;;;;;;4937567;28;19918;-76
2023/06/06 10:50:44;;;;;;;;;;;;;;;;;;4941329;29;20660;-76
2023/06/06 10:53:31;;;;;;;;;;;;;;;;;;4943421;29;19929;-75
2023/06/06 10:56:17;;;;;;;;;;;;;;;;;;4939502;29;19922;-75
2023/06/06 10:59:04;;;;;;;;;;;;;;;;;;4938072;29;19946;-76
2023/06/06 11:01:50;;;;;;;;;;;;;;;;;;4935969;28;19928;-76
2023/06/06 11:04:37;;;;;;;;;;;;;;;;;;4929505;29;20405;-76
2023/06/06 11:07:23;;;;;;;;;;;;;;;;;;4935641;28;20014;-76
2023/06/06 11:10:10;;;;;;;;;;;;;;;;;;4938698;28;19919;-76
2023/06/06 11:12:56;;;;;;;;;;;;;;;;;;4938106;29;19918;-75
2023/06/06 11:15:42;;;;;;;;;;;;;;;;;;4944357;28;19926;-76
2023/06/06 11:18:29;;;;;;;;;;;;;;;;;;4930169;29;19966;-76
2023/06/06 11:21:15;;;;;;;;;;;;;;;;;;4947305;29;19918;-76
2023/06/06 11:24:02;;;;;;;;;;;;;;;;;;4932608;29;19919;-76
2023/06/06 11:26:48;;;;;;;;;;;;;;;;;;4934517;28;19926;-76
2023/06/06 11:29:35;;;;;;;;;;;;;;;;;;4948777;28;19930;-75
2023/06/06 11:32:22;;;;;;;;;;;;;;;;;;4945253;28;19926;-76
2023/06/06 11:35:08;;;;;;;;;;;;;;;;;;4945190;28;20385;-76
2023/06/06 11:37:55;;;;;;;;;;;;;;;;;;4929876;29;19919;-75
2023/06/06 11:40:41;;;;;;;;;;;;;;;;;;4934047;28;19919;-75
2023/06/06 11:43:28;;;;;;;;;;;;;;;;;;4954227;28;19918;-75
2023/06/06 11:46:15;;;;;;;;;;;;;;;;;;4934398;28;20403;-74
2023/06/06 11:49:02;;;;;;;;;;;;;;;;;;4929262;29;19923;-75
2023/06/06 11:51:48;;;;;;;;;;;;;;;;;;4934331;28;19948;-76
2023/06/06 11:54:34;;;;;;;;;;;;;;;;;;4937017;28;19918;-76
2023/06/06 11:57:21;;;;;;;;;;;;;;;;;;4937798;28;19926;-77
2023/06/06 12:00:10;;;;;;;;;;;;;;;;;;4930243;28;19927;-74
2023/06/06 12:02:59;;;;;;;;;;;;;;;;;;4942480;28;19924;-75
2023/06/06 12:05:45;;;;;;;;;;;;;;;;;;4943425;28;19925;-75
2023/06/06 12:08:35;;;;;;;;;;;;;;;;;;4941260;28;19918;-76
2023/06/06 12:11:21;;;;;;;;;;;;;;;;;;4944531;28;20287;-76
2023/06/06 12:14:08;;;;;;;;;;;;;;;;;;4930069;28;19915;-76
2023/06/06 12:16:54;;;;;;;;;;;;;;;;;;4916735;29;19923;-77
2023/06/06 12:19:41;;;;;;;;;;;;;;;;;;4913927;29;19927;-75
2023/06/06 12:22:27;;;;;;;;;;;;;;;;;;4920772;29;20468;-77
2023/06/06 12:25:14;;;;;;;;;;;;;;;;;;4926785;28;19926;-75
2023/06/06 12:28:00;;;;;;;;;;;;;;;;;;4939927;28;19941;-75
2023/06/06 12:30:51;;;;;;;;;;;;;;;;;;4934688;29;20740;-74
2023/06/06 12:33:37;;;;;;;;;;;;;;;;;;4933170;28;19937;-74
2023/06/06 12:36:25;;;;;;;;;;;;;;;;;;4938159;28;19923;-75
2023/06/06 12:39:12;;;;;;;;;;;;;;;;;;4941234;28;19926;-75
2023/06/06 12:41:59;;;;;;;;;;;;;;;;;;4934536;29;19922;-75
2023/06/06 12:44:46;;;;;;;;;;;;;;;;;;4939017;29;19923;-75
2023/06/06 12:47:33;;;;;;;;;;;;;;;;;;4937259;29;20650;-75
2023/06/06 12:50:20;;;;;;;;;;;;;;;;;;4935296;28;19929;-75
2023/06/06 12:53:08;;;;;;;;;;;;;;;;;;4939572;29;19941;-75
2023/06/06 12:55:55;;;;;;;;;;;;;;;;;;4941315;28;19923;-74
2023/06/06 12:58:43;;;;;;;;;;;;;;;;;;4940507;28;19933;-74
2023/06/06 13:01:30;;;;;;;;;;;;;;;;;;4926826;29;19929;-86
2023/06/06 13:04:17;;;;;;;;;;;;;;;;;;4941794;28;19925;-86
2023/06/06 13:07:04;;;;;;;;;;;;;;;;;;4938016;29;19927;-88
2023/06/06 13:09:50;;;;;;;;;;;;;;;;;;4940329;28;19937;-85
2023/06/06 13:12:39;;;;;;;;;;;;;;;;;;4942177;28;20473;-90
2023/06/06 13:15:30;;;;;;;;;;;;;;;;;;4939995;29;19927;-87
2023/06/06 13:18:17;;;;;;;;;;;;;;;;;;4941676;28;19922;-88
2023/06/06 13:21:03;;;;;;;;;;;;;;;;;;4942899;28;20410;-86
2023/06/06 13:23:50;;;;;;;;;;;;;;;;;;4938648;28;19934;-86
2023/06/06 13:26:37;;;;;;;;;;;;;;;;;;4941900;28;19938;-86
2023/06/06 13:29:23;;;;;;;;;;;;;;;;;;4939960;28;19934;-86
2023/06/06 13:32:10;;;;;;;;;;;;;;;;;;4943729;29;19923;-87
2023/06/06 13:34:56;;;;;;;;;;;;;;;;;;4943049;28;19921;-89
2023/06/06 13:37:43;;;;;;;;;;;;;;;;;;4948499;28;19944;-89
2023/06/06 13:40:29;;;;;;;;;;;;;;;;;;4945639;28;19938;-89
2023/06/06 13:43:16;;;;;;;;;;;;;;;;;;4946409;29;19925;-90
2023/06/06 13:46:03;;;;;;;;;;;;;;;;;;4942162;28;19942;-89
2023/06/06 13:48:49;;;;;;;;;;;;;;;;;;4940914;29;19922;-86
2023/06/06 13:51:36;;;;;;;;;;;;;;;;;;4943787;29;19922;-85
2023/06/06 13:54:22;;;;;;;;;;;;;;;;;;4940674;29;19965;-85
2023/06/06 13:57:12;;;;;;;;;;;;;;;;;;4942046;29;19929;-85
2023/06/06 13:59:58;;;;;;;;;;;;;;;;;;4940339;29;19926;-86
2023/06/06 14:02:45;;;;;;;;;;;;;;;;;;4943105;28;20412;-85
2023/06/06 14:05:31;;;;;;;;;;;;;;;;;;4941147;29;19922;-85
2023/06/06 14:08:19;;;;;;;;;;;;;;;;;;4944842;29;20333;-85
2023/06/06 14:11:05;;;;;;;;;;;;;;;;;;4943983;29;20290;-88
2023/06/06 14:13:52;;;;;;;;;;;;;;;;;;4941282;28;19925;-82
2023/06/06 14:16:38;;;;;;;;;;;;;;;;;;4939714;28;19918;-82
2023/06/06 14:19:34;;;;;;;;;;;;;;;;;;4939835;29;19926;-84
2023/06/06 14:22:24;;;;;;;;;;;;;;;;;;4940810;28;20271;-84
2023/06/06 14:25:11;;;;;;;;;;;;;;;;;;4940855;29;19919;-85
2023/06/06 14:27:57;;;;;;;;;;;;;;;;;;4939600;29;20385;-84
2023/06/06 14:30:45;;;;;;;;;;;;;;;;;;4939371;28;19922;-83
2023/06/06 14:33:31;;;;;;;;;;;;;;;;;;4940539;28;19918;-82
2023/06/06 14:36:18;;;;;;;;;;;;;;;;;;4943674;28;19918;-84
2023/06/06 14:39:05;;;;;;;;;;;;;;;;;;4943435;29;19926;-84
2023/06/06 14:41:51;;;;;;;;;;;;;;;;;;4939293;29;19929;-82
2023/06/06 14:44:38;;;;;;;;;;;;;;;;;;4940538;28;19933;-81
2023/06/06 14:47:25;;;;;;;;;;;;;;;;;;4940382;29;19923;-82
2023/06/06 14:50:12;;;;;;;;;;;;;;;;;;4929117;29;19918;-81
2023/06/06 14:52:59;;;;;;;;;;;;;;;;;;4939197;28;19926;-82
2023/06/06 14:55:46;;;;;;;;;;;;;;;;;;4939467;29;20008;-82
2023/06/06 14:58:32;;;;;;;;;;;;;;;;;;4940354;28;19922;-82
2023/06/06 15:01:19;;;;;;;;;;;;;;;;;;4941386;29;20054;-84
2023/06/06 15:04:06;;;;;;;;;;;;;;;;;;4941625;29;19923;-82
2023/06/06 15:06:53;;;;;;;;;;;;;;;;;;4935909;29;19930;-81
2023/06/06 15:09:39;;;;;;;;;;;;;;;;;;4931620;28;20425;-81
2023/06/06 15:12:26;;;;;;;;;;;;;;;;;;4939787;28;19934;-81
2023/06/06 15:15:12;;;;;;;;;;;;;;;;;;4941701;28;19926;-81
2023/06/06 15:17:59;;;;;;;;;;;;;;;;;;4936906;28;19926;-82
2023/06/06 15:20:46;;;;;;;;;;;;;;;;;;4937492;28;19945;-81
2023/06/06 15:23:32;;;;;;;;;;;;;;;;;;4940132;28;19919;-83
2023/06/06 15:26:19;;;;;;;;;;;;;;;;;;4941044;29;20663;-82
2023/06/06 15:29:06;;;;;;;;;;;;;;;;;;4937399;28;20549;-89
2023/06/06 15:31:52;;;;;;;;;;;;;;;;;;4944785;28;19926;-88
2023/06/06 15:34:39;;;;;;;;;;;;;;;;;;4945708;28;19926;-87
2023/06/06 15:37:25;;;;;;;;;;;;;;;;;;4940672;28;19936;-85
2023/06/06 15:40:12;;;;;;;;;;;;;;;;;;4937576;29;20304;-85
2023/06/06 15:42:58;;;;;;;;;;;;;;;;;;4939420;29;19922;-85
2023/06/06 15:45:45;;;;;;;;;;;;;;;;;;4938541;28;20672;-86
2023/06/06 15:48:33;;;;;;;;;;;;;;;;;;4941917;28;19925;-86
2023/06/06 15:51:20;;;;;;;;;;;;;;;;;;4945051;28;19925;-88
2023/06/06 15:54:07;;;;;;;;;;;;;;;;;;4943006;28;19919;-87
2023/06/06 15:56:53;;;;;;;;;;;;;;;;;;4939055;28;20294;-88
2023/06/06 15:59:40;;;;;;;;;;;;;;;;;;4927537;29;19926;-86
2023/06/06 16:02:27;;;;;;;;;;;;;;;;;;4940557;29;20307;-83
2023/06/06 16:05:13;;;;;;;;;;;;;;;;;;4939966;28;19926;-83
2023/06/06 16:08:03;;;;;;;;;;;;;;;;;;4914295;29;19926;-83
2023/06/06 16:10:49;;;;;;;;;;;;;;;;;;4940060;28;19919;-83
2023/06/06 16:13:36;;;;;;;;;;;;;;;;;;4927811;28;19944;-83
2023/06/06 16:16:24;;;;;;;;;;;;;;;;;;4931012;28;20379;-83
2023/06/06 16:19:10;;;;;;;;;;;;;;;;;;4936209;28;19945;-83
2023/06/06 16:21:57;;;;;;;;;;;;;;;;;;4942464;28;20298;-83
2023/06/06 16:24:47;;;;;;;;;;;;;;;;;;4937742;29;19923;-83
2023/06/06 16:27:34;;;;;;;;;;;;;;;;;;4940521;29;19957;-83
2023/06/06 16:30:20;;;;;;;;;;;;;;;;;;4938817;28;20607;-84
2023/06/06 16:33:07;;;;;;;;;;;;;;;;;;4937738;28;19922;-81
2023/06/06 16:35:53;;;;;;;;;;;;;;;;;;4936714;28;19927;-83
2023/06/06 16:38:40;;;;;;;;;;;;;;;;;;4938071;28;19922;-83
2023/06/06 16:41:26;;;;;;;;;;;;;;;;;;4939051;29;20394;-80
2023/06/06 16:44:13;;;;;;;;;;;;;;;;;;4938508;28;19922;-81
2023/06/06 16:47:00;;;;;;;;;;;;;;;;;;4939002;29;19923;-78
2023/06/06 16:49:46;;;;;;;;;;;;;;;;;;4939495;29;20303;-84
2023/06/06 16:52:36;;;;;;;;;;;;;;;;;;4940066;29;19922;-79
2023/06/06 16:55:22;;;;;;;;;;;;;;;;;;4940239;29;19922;-80
2023/06/06 16:58:09;;;;;;;;;;;;;;;;;;4937362;29;19922;-84
2023/06/06 17:00:56;;;;;;;;;;;;;;;;;;4936308;28;19938;-85
2023/06/06 17:03:43;;;;;;;;;;;;;;;;;;4941291;28;19928;-84
2023/06/06 17:06:29;;;;;;;;;;;;;;;;;;4941364;28;19922;-83
2023/06/06 17:09:20;;;;;;;;;;;;;;;;;;4942603;28;19930;-84
2023/06/06 17:12:06;;;;;;;;;;;;;;;;;;4934797;28;20294;-84
2023/06/06 17:14:53;;;;;;;;;;;;;;;;;;4936586;28;19923;-83
2023/06/06 17:17:40;;;;;;;;;;;;;;;;;;4947023;28;19928;-82
2023/06/06 17:20:28;;;;;;;;;;;;;;;;;;4942820;29;20022;-83
2023/06/06 17:23:17;;;;;;;;;;;;;;;;;;4937986;29;19929;-84
2023/06/06 17:26:03;;;;;;;;;;;;;;;;;;4941992;28;19922;-79
2023/06/06 17:28:50;;;;;;;;;;;;;;;;;;4937111;29;19930;-77
2023/06/06 17:31:36;;;;;;;;;;;;;;;;;;4940631;28;20248;-77
2023/06/06 17:34:22;;;;;;;;;;;;;;;;;;4943202;29;19929;-78
2023/06/06 17:37:09;;;;;;;;;;;;;;;;;;4938943;28;19930;-78
2023/06/06 17:39:56;;;;;;;;;;;;;;;;;;4940626;29;19946;-78
2023/06/06 17:42:44;;;;;;;;;;;;;;;;;;4940918;28;19938;-78
2023/06/06 17:45:31;;;;;;;;;;;;;;;;;;4942653;29;19918;-79
2023/06/06 17:48:17;;;;;;;;;;;;;;;;;;4940165;29;19929;-80
2023/06/06 17:51:04;;;;;;;;;;;;;;;;;;4938977;29;20433;-79
2023/06/06 17:53:51;;;;;;;;;;;;;;;;;;4939984;29;19922;-80
2023/06/06 17:56:37;;;;;;;;;;;;;;;;;;4937519;29;19930;-79
2023/06/06 17:59:24;;;;;;;;;;;;;;;;;;4940827;29;20451;-79
2023/06/06 18:02:11;;;;;;;;;;;;;;;;;;4939282;29;19930;-78
2023/06/06 18:04:57;;;;;;;;;;;;;;;;;;4938243;29;19918;-77
2023/06/06 18:07:44;;;;;;;;;;;;;;;;;;4943071;29;19929;-77
2023/06/06 18:10:30;;;;;;;;;;;;;;;;;;4940056;28;19930;-77
2023/06/06 18:13:17;;;;;;;;;;;;;;;;;;4942891;28;20784;-77
2023/06/06 18:16:03;;;;;;;;;;;;;;;;;;4941255;28;19942;-78
2023/06/06 18:18:50;;;;;;;;;;;;;;;;;;4938824;28;20306;-78
2023/06/06 18:21:37;;;;;;;;;;;;;;;;;;4942431;28;19923;-77
2023/06/06 18:24:23;;;;;;;;;;;;;;;;;;4936968;28;19926;-78
2023/06/06 18:27:10;;;;;;;;;;;;;;;;;;4941732;28;19927;-78
2023/06/06 18:29:57;;;;;;;;;;;;;;;;;;4939843;29;19929;-76
2023/06/06 18:32:43;;;;;;;;;;;;;;;;;;4940760;28;19923;-78
2023/06/06 18:35:30;;;;;;;;;;;;;;;;;;4937408;29;20295;-78
2023/06/06 18:38:16;;;;;;;;;;;;;;;;;;4938812;29;19929;-78
2023/06/06 18:41:03;;;;;;;;;;;;;;;;;;4940793;29;19946;-78
2023/06/06 18:43:49;;;;;;;;;;;;;;;;;;4938163;28;20331;-77
2023/06/06 18:46:36;;;;;;;;;;;;;;;;;;4936249;28;19938;-77
2023/06/06 18:49:22;;;;;;;;;;;;;;;;;;4925391;28;19944;-76
2023/06/06 18:52:09;;;;;;;;;;;;;;;;;;4938370;28;19929;-76
2023/06/06 18:54:56;;;;;;;;;;;;;;;;;;4936747;28;19927;-77
2023/06/06 18:57:42;;;;;;;;;;;;;;;;;;4934826;29;19923;-77
2023/06/06 19:00:29;;;;;;;;;;;;;;;;;;4935501;29;19934;-78